Time,TemperatureF,DewpointF,PressureIn,WindDirection,WindDirectionDegrees,WindSpeedMPH,WindSpeedGustMPH,Humidity,HourlyPrecipIn,Conditions,Clouds,dailyrainin,SoftwareType,DateUTC
2016-02-13 00:11:00,32.5,28.0,30.13,NNW,345,0.0,5.0,83,0.00,,,0.00,weatherlink.com 1.10,2016-02-13 07:11:00,
2016-02-13 00:26:00,32.3,28.0,30.13,NNW,345,0.0,0.0,84,0.00,,,0.00,weatherlink.com 1.10,2016-02-13 07:26:00,
2016-02-13 00:41:00,31.7,27.0,30.12,NNW,345,0.0,0.0,84,0.00,,,0.00,weatherlink.com 1.10,2016-02-13 07:41:00,
2016-02-13 00:56:00,31.2,27.0,30.12,NNW,345,0.0,0.0,84,0.00,,,0.00,weatherlink.com 1.10,2016-02-13 07:56:00,
2016-02-13 01:26:00,29.7,26.0,30.11,NNW,345,3.0,4.0,85,0.00,,,0.00,weatherlink.com 1.10,2016-02-13 08:26:00,
2016-02-13 01:41:00,29.3,26.0,30.11,North,355,0.0,2.0,86,0.00,,,0.00,weatherlink.com 1.10,2016-02-13 08:41:00,
2016-02-13 02:11:00,29.0,26.0,30.11,North,355,0.0,0.0,88,0.00,,,0.00,weatherlink.com 1.10,2016-02-13 09:11:00,
2016-02-13 02:26:00,29.3,26.0,30.10,North,355,0.0,0.0,88,0.00,,,0.00,weatherlink.com 1.10,2016-02-13 09:26:00,
2016-02-13 02:41:00,29.1,26.0,30.10,WNW,282,0.0,7.0,89,0.00,,,0.00,weatherlink.com 1.10,2016-02-13 09:41:00,
2016-02-13 02:56:00,28.8,26.0,30.10,WNW,282,0.0,0.0,89,0.00,,,0.00,weatherlink.com 1.10,2016-02-13 09:56:00,
2016-02-13 03:11:00,28.4,26.0,30.09,WNW,282,0.0,3.0,90,0.00,,,0.00,weatherlink.com 1.10,2016-02-13 10:11:00,
2016-02-13 03:26:00,28.2,26.0,30.08,WNW,282,0.0,2.0,90,0.00,,,0.00,weatherlink.com 1.10,2016-02-13 10:26:00,
2016-02-13 03:41:00,27.9,25.0,30.08,WNW,282,0.0,0.0,90,0.00,,,0.00,weatherlink.com 1.10,2016-02-13 10:41:00,
2016-02-13 03:56:00,27.8,25.0,30.07,WNW,282,0.0,4.0,90,0.00,,,0.00,weatherlink.com 1.10,2016-02-13 10:56:00,
2016-02-13 04:26:00,27.9,26.0,30.07,WNW,282,0.0,3.0,91,0.00,,,0.00,weatherlink.com 1.10,2016-02-13 11:26:00,
2016-02-13 04:41:00,27.5,25.0,30.07,West,279,2.0,5.0,91,0.00,,,0.00,weatherlink.com 1.10,2016-02-13 11:41:00,
2016-02-13 05:11:00,26.5,25.0,30.05,West,279,0.0,1.0,92,0.00,,,0.00,weatherlink.com 1.10,2016-02-13 12:11:00,
2016-02-13 05:26:00,26.2,24.0,30.05,West,279,0.0,0.0,91,0.00,,,0.00,weatherlink.com 1.10,2016-02-13 12:26:00,
2016-02-13 05:41:00,25.9,24.0,30.05,WNW,284,0.0,3.0,91,0.00,,,0.00,weatherlink.com 1.10,2016-02-13 12:41:00,
2016-02-13 05:56:00,25.6,24.0,30.05,WNW,284,2.0,2.0,92,0.00,,,0.00,weatherlink.com 1.10,2016-02-13 12:56:00,
2016-02-13 06:11:00,25.3,23.0,30.05,WNW,284,0.0,4.0,92,0.00,,,0.00,weatherlink.com 1.10,2016-02-13 13:11:00,
2016-02-13 06:26:00,25.0,23.0,30.05,WNW,284,0.0,1.0,92,0.00,,,0.00,weatherlink.com 1.10,2016-02-13 13:26:00,
2016-02-13 06:41:00,24.8,23.0,30.05,WNW,284,3.0,4.0,92,0.00,,,0.00,weatherlink.com 1.10,2016-02-13 13:41:00,
2016-02-13 06:56:00,24.6,23.0,30.06,WNW,284,2.0,2.0,92,0.00,,,0.00,weatherlink.com 1.10,2016-02-13 13:56:00,
2016-02-13 07:11:00,24.6,23.0,30.06,WNW,284,0.0,4.0,92,0.00,,,0.00,weatherlink.com 1.10,2016-02-13 14:11:00,
2016-02-13 07:26:00,24.5,23.0,30.06,WNW,284,0.0,4.0,92,0.00,,,0.00,weatherlink.com 1.10,2016-02-13 14:26:00,
2016-02-13 07:41:00,24.6,23.0,30.06,WNW,284,0.0,0.0,92,0.00,,,0.00,weatherlink.com 1.10,2016-02-13 14:41:00,
2016-02-13 07:56:00,24.8,23.0,30.06,WNW,284,0.0,1.0,92,0.00,,,0.00,weatherlink.com 1.10,2016-02-13 14:56:00,
2016-02-13 08:11:00,25.1,23.0,30.07,WNW,284,0.0,0.0,92,0.00,,,0.00,weatherlink.com 1.10,2016-02-13 15:11:00,
2016-02-13 08:41:00,26.2,25.0,30.06,WNW,284,0.0,3.0,93,0.00,,,0.00,weatherlink.com 1.10,2016-02-13 15:41:00,
2016-02-13 08:56:00,27.0,25.0,30.05,WNW,284,0.0,0.0,93,0.00,,,0.00,weatherlink.com 1.10,2016-02-13 15:56:00,
2016-02-13 09:11:00,27.8,26.0,30.05,WNW,284,0.0,0.0,93,0.00,,,0.00,weatherlink.com 1.10,2016-02-13 16:11:00,
2016-02-13 09:27:00,28.8,27.0,30.04,WNW,284,0.0,3.0,93,0.00,,,0.00,weatherlink.com 1.10,2016-02-13 16:27:00,
2016-02-13 09:42:00,32.1,31.0,30.03,West,260,0.0,13.0,94,0.00,,,0.00,weatherlink.com 1.10,2016-02-13 16:42:00,
2016-02-13 09:57:00,35.6,34.0,30.02,West,260,0.0,2.0,94,0.00,,,0.00,weatherlink.com 1.10,2016-02-13 16:57:00,
2016-02-13 10:12:00,39.3,38.0,30.01,West,267,1.0,3.0,95,0.00,,,0.00,weatherlink.com 1.10,2016-02-13 17:12:00,
2016-02-13 10:27:00,42.8,41.0,30.01,West,267,0.0,2.0,93,0.00,,,0.00,weatherlink.com 1.10,2016-02-13 17:27:00,
2016-02-13 10:42:00,47.3,42.0,30.00,NW,326,1.0,4.0,81,0.00,,,0.00,weatherlink.com 1.10,2016-02-13 17:42:00,